Flight Track Log - Related Links

Times and Time Zones

All times are in EDT time to prevent confusion due to time zone crossing. See the JZA8752 flight status page for this flight to view local times or setup timezone preferences in your user account.

Time Position Orientation Groundspeed Altitude Reporting Facility
EDT Latitude Longitude Course Direction KTS MPH feet Rate Location/Type
Sat 10:49:00 AM 47.9265 -77.4177 133° Southeast  Level FlightAware
Sat 10:50:00 AM 47.8762 -77.3435 135° Southeast  Level FlightAware
Sat 10:51:00 AM 47.8259 -77.2694 135° Southeast  Level FlightAware
Sat 10:52:00 AM 47.7755 -77.1954 135° Southeast  Level FlightAware
Sat 10:53:00 AM 47.7251 -77.1216 135° Southeast  Level FlightAware
Sat 10:53:52 AM 47.7167 -77.1167 136° Southeast 240 276 15,500  Level Montreal Center
Sat 10:54:00 AM 47.6746 -77.0480 135° Southeast  Level FlightAware
Sat 10:55:00 AM 47.6241 -76.9744 136° Southeast  Level FlightAware
Sat 10:55:52 AM 47.6167 -76.9667 135° Southeast 260 299 17,700  Level Montreal Center
Sat 10:56:00 AM 47.5735 -76.9011 136° Southeast  Level FlightAware
Sat 10:56:52 AM 47.5667 -76.8833 132° Southeast 260 299 18,900  Level Montreal Center
Sat 10:57:00 AM 47.5229 -76.8278 136° Southeast  Level FlightAware
Sat 10:57:52 AM 47.5167 -76.8167 138° Southeast 270 311 19,800  Level Montreal Center
Sat 10:58:00 AM 47.4722 -76.7547 136° Southeast  Level FlightAware
Sat 10:58:52 AM 47.4667 -76.7333 132° Southeast 270 311 20,800  Level Montreal Center
Sat 10:59:00 AM 47.4215 -76.6818 136° Southeast  Level FlightAware
Sat 10:59:52 AM 47.4167 -76.6333 126° Southeast 270 311 21,800  Level Montreal Center
Sat 11:00:52 AM 47.3667 -76.5667 138° Southeast 280 322 22,600 800 Climbing Montreal Center
Sat 11:01:52 AM 47.3000 -76.4667 134° Southeast 280 322 23,400 800 Climbing Montreal Center
Sat 11:02:52 AM 47.2500 -76.3833 131° Southeast 280 322 24,200 750 Climbing Montreal Center
Sat 11:03:52 AM 47.2000 -76.3167 138° Southeast 280 322 24,900 400 Climbing Montreal Center
Sat 11:04:52 AM 47.1333 -76.2167 134° Southeast 300 345 25,000 50 Climbing Montreal Center
Sat 11:05:52 AM 47.0667 -76.1167 134° Southeast 310 357 25,000  Level Montreal Center
Sat 11:06:52 AM 47.0167 -76.0333 131° Southeast 330 380 25,000  Level Montreal Center
Sat 11:07:52 AM 46.9500 -75.9167 130° Southeast 340 391 25,000  Level Montreal Center
Sat 11:08:52 AM 46.8833 -75.8167 134° Southeast 340 391 25,000  Level Montreal Center
Sat 11:09:52 AM 46.8167 -75.7167 134° Southeast 340 391 25,000  Level Montreal Center
Sat 11:10:52 AM 46.7500 -75.6167 134° Southeast 340 391 25,000 -50 Level Montreal Center
Sat 11:11:52 AM 46.6833 -75.5333 139° Southeast 340 391 24,900 -600 Descending Montreal Center
Sat 11:12:52 AM 46.6333 -75.4000 119° Southeast 350 403 23,800 -1,200 Descending Montreal Center
Sat 11:13:52 AM 46.5500 -75.3167 145° Southeast 370 426 22,500 -1,200 Descending Montreal Center
Sat 11:14:52 AM 46.4833 -75.1833 126° Southeast 370 426 21,400 -1,200 Descending Montreal Center
Sat 11:15:52 AM 46.4167 -75.0667 130° Southeast 370 426 20,100 -1,250 Descending Montreal Center
Sat 11:16:52 AM 46.3500 -74.9667 134° Southeast 360 414 18,900 -1,200 Descending Montreal Center
Sat 11:17:52 AM 46.2667 -74.8833 145° Southeast 350 403 17,700 -1,200 Descending Montreal Center
Sat 11:18:52 AM 46.2000 -74.7500 126° Southeast 350 403 16,500 -1,150 Descending Montreal Center
Sat 11:19:52 AM 46.1500 -74.6667 131° Southeast 340 391 15,400 -1,100 Descending Montreal Center
Sat 11:20:52 AM 46.0833 -74.5667 134° Southeast 330 380 14,300 -1,000 Descending Montreal Center
Sat 11:21:52 AM 46.0167 -74.4667 134° Southeast 330 380 13,400 -900 Descending Montreal Center
Sat 11:22:52 AM 45.9500 -74.4000 145° Southeast 320 368 12,500 -1,000 Descending Montreal Center
Sat 11:23:52 AM 45.8833 -74.3000 134° Southeast 310 357 11,400 -1,150 Descending Montreal Center
Sat 11:24:52 AM 45.8167 -74.2333 145° Southeast 310 357 10,200 -1,200 Descending Montreal Center
Sat 11:25:52 AM 45.7667 -74.1667 137° Southeast 240 276 9,000 -1,250 Descending Montreal Center
Sat 11:26:52 AM 45.7333 -74.1000 126° Southeast 240 276 7,700 -1,200 Descending Montreal Center
Sat 11:27:52 AM 45.7000 -74.0000 115° Southeast 240 276 6,600 -850 Descending Montreal Center
Sat 11:28:52 AM 45.6500 -73.9333 137° Southeast 230 265 6,000 -650 Descending Montreal Center
Sat 11:29:52 AM 45.6333 -73.8333 103° East 240 276 5,300 -850 Descending Montreal Center
Sat 11:30:52 AM 45.6333 -73.7333 90° East 250 288 4,300 -1,000 Descending Montreal Center
Sat 11:31:52 AM 45.6333 -73.6500 90° East 240 276 3,300 -850 Descending Montreal Center
Sat 11:32:52 AM 45.6000 -73.6000 134° Southeast 200 230 2,600 -550 Descending Montreal Center
Sat 11:33:52 AM 45.5500 -73.6167 193° South 160 184 2,200 -400 Descending Montreal Center

Login

Don't have an account? Register now (free) for customized features, flight alerts, and more!